createdAt,value
2018-09-08T00:01:16.665Z,99.90
2018-09-08T00:03:45.827Z,99.90
2018-09-08T00:06:19.137Z,99.90
2018-09-08T00:08:48.286Z,99.90
2018-09-08T00:11:17.442Z,99.90
2018-09-08T00:13:46.797Z,99.90
2018-09-08T00:16:21.045Z,99.90
2018-09-08T00:18:55.249Z,99.90
2018-09-08T00:21:29.611Z,99.90
2018-09-08T00:24:04.003Z,99.90
2018-09-08T00:26:34.041Z,99.90
2018-09-08T00:29:13.271Z,99.90
2018-09-08T00:31:42.525Z,99.90
2018-09-08T00:34:11.644Z,99.90
2018-09-08T00:36:40.941Z,99.90
2018-09-08T00:39:10.585Z,99.90
2018-09-08T00:41:39.614Z,99.90
2018-09-08T00:44:08.817Z,99.90
2018-09-08T00:46:37.883Z,99.90
2018-09-08T00:49:06.990Z,99.90
2018-09-08T00:51:36.161Z,99.90
2018-09-08T00:54:05.521Z,99.90
2018-09-08T00:56:34.825Z,99.90
2018-09-08T00:59:04.973Z,99.90
2018-09-08T01:01:35.643Z,99.90
2018-09-08T01:04:04.922Z,99.90
2018-09-08T01:06:34.074Z,99.90
2018-09-08T01:09:03.393Z,99.90
2018-09-08T01:11:32.559Z,99.90
2018-09-08T01:14:01.777Z,99.90
2018-09-08T01:16:31.138Z,99.90
2018-09-08T01:19:00.197Z,99.90
2018-09-08T01:21:31.446Z,99.90
2018-09-08T01:24:01.265Z,99.90
2018-09-08T01:26:30.373Z,99.90
2018-09-08T01:28:59.479Z,99.90
2018-09-08T01:31:29.161Z,99.90
2018-09-08T01:33:58.322Z,99.90
2018-09-08T01:36:27.337Z,99.90
2018-09-08T01:38:56.388Z,99.90
2018-09-08T01:41:25.421Z,99.90
2018-09-08T01:43:54.798Z,99.90
2018-09-08T01:46:23.801Z,99.90
2018-09-08T01:48:52.891Z,99.90
2018-09-08T01:51:21.997Z,99.90
2018-09-08T01:53:51.146Z,99.90
2018-09-08T01:56:20.356Z,99.90
2018-09-08T01:58:49.638Z,99.90
2018-09-08T02:01:18.790Z,99.90
2018-09-08T02:03:47.940Z,99.90
2018-09-08T02:06:17.099Z,99.90
2018-09-08T02:08:46.366Z,99.90
2018-09-08T02:11:15.638Z,99.90
2018-09-08T02:13:44.750Z,99.90
2018-09-08T02:16:13.804Z,99.90
2018-09-08T02:18:43.370Z,99.90
2018-09-08T02:21:12.570Z,99.90
2018-09-08T02:23:41.905Z,99.90
2018-09-08T02:26:11.163Z,99.90
2018-09-08T02:28:40.325Z,99.90
2018-09-08T02:31:09.517Z,99.90
2018-09-08T02:33:38.641Z,99.90
2018-09-08T02:36:07.774Z,99.90
2018-09-08T02:38:37.030Z,99.90
2018-09-08T02:41:06.359Z,99.90
2018-09-08T02:43:35.554Z,99.90
2018-09-08T02:46:04.763Z,99.90
2018-09-08T02:48:33.737Z,99.90
2018-09-08T02:51:01.322Z,99.90
2018-09-08T02:53:28.903Z,99.90
2018-09-08T02:55:56.482Z,99.90
2018-09-08T02:58:24.102Z,99.90
2018-09-08T03:00:51.661Z,99.90
2018-09-08T03:03:19.365Z,99.90
2018-09-08T03:05:47.026Z,99.90
2018-09-08T03:08:14.630Z,99.90
2018-09-08T03:10:42.230Z,99.90
2018-09-08T03:13:09.874Z,99.90
2018-09-08T03:15:37.619Z,99.90
2018-09-08T03:18:05.223Z,99.90
2018-09-08T03:20:32.834Z,99.90
2018-09-08T03:23:00.469Z,99.90
2018-09-08T03:25:28.114Z,99.90
2018-09-08T03:27:55.719Z,99.90
2018-09-08T03:30:23.434Z,99.90
2018-09-08T03:32:51.058Z,99.90
2018-09-08T03:35:18.741Z,99.90
2018-09-08T03:37:46.447Z,99.90
2018-09-08T03:40:14.170Z,99.90
2018-09-08T03:42:41.773Z,99.90
2018-09-08T03:45:09.374Z,99.90
2018-09-08T03:47:37.205Z,99.90
2018-09-08T03:50:05.386Z,99.90
2018-09-08T03:52:32.977Z,99.90
2018-09-08T03:55:00.604Z,99.90
2018-09-08T03:57:28.301Z,99.90
2018-09-08T03:59:56.026Z,99.90
2018-09-08T04:02:23.716Z,99.90
2018-09-08T04:04:52.962Z,99.90
2018-09-08T04:07:22.417Z,99.90
2018-09-08T04:09:51.501Z,99.90
2018-09-08T04:12:20.647Z,99.90
2018-09-08T04:14:50.214Z,99.90
2018-09-08T04:17:19.457Z,99.90
2018-09-08T04:19:48.688Z,99.90
2018-09-08T04:22:21.838Z,99.90
2018-09-08T04:24:50.909Z,99.90
2018-09-08T04:27:20.190Z,99.90
2018-09-08T04:29:49.301Z,99.90
2018-09-08T04:32:18.450Z,99.90
2018-09-08T04:34:47.493Z,99.90
2018-09-08T04:37:16.730Z,99.90
2018-09-08T04:39:46.020Z,99.90
2018-09-08T04:42:15.109Z,99.90
2018-09-08T04:44:44.365Z,99.90
2018-09-08T04:47:13.706Z,99.90
2018-09-08T04:49:43.389Z,99.90
2018-09-08T04:52:12.437Z,99.90
2018-09-08T04:54:41.601Z,99.90
2018-09-08T04:57:10.810Z,99.90
2018-09-08T04:59:40.053Z,99.90
2018-09-08T05:02:09.262Z,99.90
2018-09-08T05:04:38.330Z,99.90
2018-09-08T05:07:07.465Z,99.90
2018-09-08T05:09:36.662Z,99.90
2018-09-08T05:12:05.939Z,99.90
2018-09-08T05:14:35.269Z,99.90
2018-09-08T05:17:04.489Z,99.90
2018-09-08T05:19:33.554Z,99.90
2018-09-08T05:22:02.757Z,99.90
2018-09-08T05:24:31.986Z,99.90
2018-09-08T05:27:01.039Z,99.90
2018-09-08T05:29:30.289Z,99.90
2018-09-08T05:31:59.516Z,99.90
2018-09-08T05:34:28.653Z,99.90
2018-09-08T05:36:57.627Z,99.90
2018-09-08T05:39:26.814Z,99.90
2018-09-08T05:41:56.078Z,99.90
2018-09-08T05:44:25.273Z,99.90
2018-09-08T05:46:54.269Z,99.90
2018-09-08T05:49:23.437Z,99.90
2018-09-08T05:51:52.642Z,99.90
2018-09-08T05:54:21.813Z,99.90
2018-09-08T05:56:51.053Z,99.90
2018-09-08T05:59:20.185Z,99.90
2018-09-08T06:01:49.215Z,99.90
2018-09-08T06:04:18.402Z,99.90
2018-09-08T06:06:47.580Z,99.90
2018-09-08T06:09:16.801Z,99.90
2018-09-08T06:11:46.153Z,99.90
2018-09-08T06:14:15.401Z,99.90
2018-09-08T06:16:44.621Z,99.90
2018-09-08T06:19:13.829Z,99.90
2018-09-08T06:21:43.804Z,99.90
2018-09-08T06:24:12.929Z,99.90
2018-09-08T06:26:42.076Z,99.90
2018-09-08T06:29:11.066Z,99.90
2018-09-08T06:31:40.158Z,99.90
2018-09-08T06:34:09.364Z,99.90
2018-09-08T06:36:38.477Z,99.90
2018-09-08T06:39:10.449Z,99.90
2018-09-08T06:41:39.573Z,99.90
2018-09-08T06:44:08.919Z,99.90
2018-09-08T06:46:38.036Z,99.90
2018-09-08T06:49:07.398Z,99.90
2018-09-08T06:51:37.278Z,99.90
2018-09-08T06:54:06.522Z,99.90
2018-09-08T06:56:35.581Z,99.90
2018-09-08T06:59:04.776Z,99.90
2018-09-08T07:01:33.786Z,99.90
2018-09-08T07:04:02.838Z,99.90
2018-09-08T07:06:32.134Z,99.90
2018-09-08T07:09:01.351Z,99.90
2018-09-08T07:11:30.503Z,99.90
2018-09-08T07:13:59.634Z,99.90
2018-09-08T07:16:28.902Z,99.90
2018-09-08T07:18:57.928Z,99.90
2018-09-08T07:21:26.997Z,99.90
2018-09-08T07:23:56.082Z,99.90
2018-09-08T07:26:25.254Z,99.90
2018-09-08T07:28:54.486Z,99.90
2018-09-08T07:31:23.453Z,99.90
2018-09-08T07:33:52.789Z,99.90
2018-09-08T07:36:21.953Z,99.90
2018-09-08T07:38:51.030Z,99.90
2018-09-08T07:41:20.086Z,99.90
2018-09-08T07:43:49.150Z,99.90
2018-09-08T07:46:18.246Z,99.90
2018-09-08T07:48:47.337Z,99.90
2018-09-08T07:51:16.666Z,99.90
2018-09-08T07:53:45.811Z,99.90
2018-09-08T07:56:14.823Z,99.90
2018-09-08T07:58:44.077Z,99.90
2018-09-08T08:01:13.314Z,99.90
2018-09-08T08:03:42.555Z,99.90
2018-09-08T08:06:11.734Z,99.90
2018-09-08T08:08:40.773Z,99.90
2018-09-08T08:11:10.651Z,99.90
2018-09-08T08:13:39.891Z,98.90
2018-09-08T08:16:09.189Z,96.50
2018-09-08T08:18:38.462Z,95.80
2018-09-08T08:21:07.562Z,95.80
2018-09-08T08:23:36.798Z,93.40
2018-09-08T08:26:06.031Z,88.00
2018-09-08T08:28:35.682Z,81.90
2018-09-08T08:31:04.896Z,76.60
2018-09-08T08:33:33.981Z,75.70
2018-09-08T08:36:02.997Z,66.10
2018-09-08T08:38:32.085Z,61.60
2018-09-08T08:41:01.163Z,61.40
2018-09-08T08:43:30.228Z,59.40
2018-09-08T08:45:59.303Z,59.00
2018-09-08T08:48:28.378Z,60.00
2018-09-08T08:51:08.354Z,59.10
2018-09-08T08:53:48.465Z,60.20
2018-09-08T08:56:18.045Z,59.50
2018-09-08T08:58:47.152Z,62.00
2018-09-08T09:01:16.169Z,60.80
2018-09-08T09:03:45.144Z,59.90
2018-09-08T09:06:14.294Z,59.10
2018-09-08T09:08:43.747Z,59.00
2018-09-08T09:11:12.734Z,58.10
2018-09-08T09:13:41.721Z,55.40
2018-09-08T09:16:10.805Z,53.60
2018-09-08T09:18:51.245Z,53.40
2018-09-08T09:21:30.860Z,54.00
2018-09-08T09:24:21.034Z,53.00
2018-09-08T09:26:49.753Z,52.40
2018-09-08T09:29:19.465Z,52.00
2018-09-08T09:31:48.825Z,51.40
2018-09-08T09:34:18.082Z,51.10
2018-09-08T09:36:47.298Z,50.10
2018-09-08T09:39:16.382Z,50.40
2018-09-08T09:41:45.497Z,50.10
2018-09-08T09:44:14.726Z,49.50
2018-09-08T09:46:43.906Z,50.60
2018-09-08T09:49:13.090Z,52.20
2018-09-08T09:51:42.122Z,50.20
2018-09-08T09:54:11.142Z,49.40
2018-09-08T09:56:40.163Z,49.10
2018-09-08T09:59:09.263Z,49.10
2018-09-08T10:01:48.339Z,47.20
2018-09-08T10:04:17.571Z,47.60
2018-09-08T10:06:46.605Z,48.10
2018-09-08T10:09:15.762Z,48.60
2018-09-08T10:11:44.897Z,48.60
2018-09-08T10:14:13.984Z,48.20
2018-09-08T10:16:43.074Z,50.20
2018-09-08T10:19:12.276Z,47.50
2018-09-08T10:21:41.729Z,46.90
2018-09-08T10:24:10.817Z,46.40
2018-09-08T10:26:39.990Z,46.60
2018-09-08T10:29:09.142Z,44.70
2018-09-08T10:31:38.210Z,44.00
2018-09-08T10:34:07.393Z,42.50
2018-09-08T10:36:36.722Z,41.70
2018-09-08T10:39:07.175Z,40.90
2018-09-08T10:41:36.207Z,41.30
2018-09-08T10:44:05.317Z,41.50
2018-09-08T10:46:34.409Z,40.70
2018-09-08T10:49:03.410Z,40.30
2018-09-08T10:53:40.773Z,42.40
2018-09-08T10:56:09.956Z,43.50
2018-09-08T10:58:39.257Z,46.30
2018-09-08T11:01:08.380Z,47.50
2018-09-08T11:03:37.469Z,47.00
2018-09-08T11:06:06.486Z,48.30
2018-09-08T11:08:35.773Z,47.60
2018-09-08T11:11:04.885Z,45.30
2018-09-08T11:13:34.140Z,44.60
2018-09-08T11:16:03.314Z,46.00
2018-09-08T11:18:32.383Z,44.30
2018-09-08T11:21:01.414Z,44.60
2018-09-08T11:23:30.633Z,44.30
2018-09-08T11:25:59.728Z,44.60
2018-09-08T11:28:28.950Z,44.70
2018-09-08T11:30:58.102Z,43.40
2018-09-08T11:33:27.352Z,41.40
2018-09-08T11:35:56.590Z,41.70
2018-09-08T11:38:25.826Z,41.00
2018-09-08T11:40:54.837Z,40.50
2018-09-08T11:43:23.994Z,41.50
2018-09-08T11:45:53.198Z,41.60
2018-09-08T11:48:22.369Z,42.30
2018-09-08T11:50:51.610Z,44.50
2018-09-08T11:53:20.793Z,43.30
2018-09-08T11:55:49.921Z,42.50
2018-09-08T11:58:19.177Z,42.00
2018-09-08T12:00:48.454Z,44.40
2018-09-08T12:03:17.716Z,44.60
2018-09-08T12:05:46.901Z,44.80
2018-09-08T12:08:16.062Z,45.70
2018-09-08T12:10:45.167Z,46.40
2018-09-08T12:13:14.352Z,47.50
2018-09-08T12:15:43.493Z,47.50
2018-09-08T12:18:12.698Z,47.90
2018-09-08T12:20:41.787Z,48.30
2018-09-08T12:23:10.856Z,48.30
2018-09-08T12:25:40.427Z,48.20
2018-09-08T12:28:09.765Z,47.80
2018-09-08T12:30:39.260Z,48.10
2018-09-08T12:33:08.401Z,47.10
2018-09-08T12:35:37.541Z,46.90
2018-09-08T12:38:06.557Z,47.00
2018-09-08T12:40:35.771Z,49.20
2018-09-08T12:43:04.865Z,48.60
2018-09-08T12:45:34.063Z,48.80
2018-09-08T12:48:03.366Z,45.90
2018-09-08T12:50:32.682Z,45.30
2018-09-08T12:53:01.657Z,43.10
2018-09-08T12:55:30.770Z,42.60
2018-09-08T12:58:00.017Z,42.60
2018-09-08T13:00:29.241Z,41.80
2018-09-08T13:02:58.632Z,41.30
2018-09-08T13:05:27.611Z,40.60
2018-09-08T13:07:56.534Z,40.60
2018-09-08T13:10:25.810Z,40.30
2018-09-08T13:12:55.094Z,40.40
2018-09-08T13:15:24.719Z,39.70
2018-09-08T13:17:54.109Z,39.50
2018-09-08T13:20:23.256Z,40.20
2018-09-08T13:22:52.436Z,41.00
2018-09-08T13:25:21.559Z,41.50
2018-09-08T13:27:50.999Z,41.60
2018-09-08T13:30:20.234Z,42.50
2018-09-08T13:32:49.342Z,42.50
2018-09-08T13:35:18.384Z,42.60
2018-09-08T13:37:47.420Z,42.40
2018-09-08T13:40:16.474Z,43.20
2018-09-08T13:42:45.614Z,43.60
2018-09-08T13:45:14.790Z,43.50
2018-09-08T13:47:44.590Z,44.70
2018-09-08T13:50:13.649Z,43.90
2018-09-08T13:52:42.671Z,43.70
2018-09-08T13:55:11.870Z,44.30
2018-09-08T13:57:40.916Z,44.10
2018-09-08T14:00:10.152Z,44.00
2018-09-08T14:02:39.286Z,43.10
2018-09-08T14:05:08.338Z,43.40
2018-09-08T14:07:41.681Z,42.90
2018-09-08T14:10:10.825Z,43.00
2018-09-08T14:12:39.869Z,42.40
2018-09-08T14:15:09.075Z,43.30
2018-09-08T14:17:38.294Z,42.60
2018-09-08T14:20:07.333Z,42.60
2018-09-08T14:22:36.402Z,42.80
2018-09-08T14:25:05.958Z,43.70
2018-09-08T14:27:35.035Z,42.10
2018-09-08T14:30:04.749Z,43.40
2018-09-08T14:32:33.875Z,42.50
2018-09-08T14:35:03.050Z,43.60
2018-09-08T14:37:32.166Z,43.10
2018-09-08T14:40:01.233Z,42.60
2018-09-08T14:42:30.414Z,43.70
2018-09-08T14:44:59.489Z,43.20
2018-09-08T14:47:28.563Z,43.30
2018-09-08T14:49:57.648Z,43.60
2018-09-08T14:52:26.615Z,44.80
2018-09-08T14:54:55.695Z,45.20
2018-09-08T14:57:24.701Z,44.90
2018-09-08T14:59:54.061Z,45.30
2018-09-08T15:02:23.277Z,44.50
2018-09-08T15:04:52.498Z,44.70
2018-09-08T15:07:21.773Z,46.00
2018-09-08T15:09:51.031Z,45.00
2018-09-08T15:12:20.097Z,44.90
2018-09-08T15:14:49.217Z,45.40
2018-09-08T15:17:18.293Z,46.10
2018-09-08T15:19:48.048Z,45.70
2018-09-08T15:22:17.282Z,46.60
2018-09-08T15:24:46.354Z,46.70
2018-09-08T15:27:15.520Z,47.30
2018-09-08T15:29:44.804Z,47.70
2018-09-08T15:32:13.925Z,48.30
2018-09-08T15:34:43.013Z,48.40
2018-09-08T15:37:11.998Z,48.80
2018-09-08T15:39:41.135Z,46.80
2018-09-08T15:42:10.154Z,46.20
2018-09-08T15:44:39.224Z,46.30
2018-09-08T15:47:08.365Z,46.90
2018-09-08T15:49:37.547Z,47.40
2018-09-08T15:52:06.697Z,48.60
2018-09-08T15:54:35.920Z,47.90
2018-09-08T15:57:05.093Z,48.10
2018-09-08T15:59:34.267Z,48.10
2018-09-08T16:02:03.590Z,48.10
2018-09-08T16:04:32.760Z,47.90
2018-09-08T16:07:01.853Z,48.10
2018-09-08T16:09:31.020Z,48.70
2018-09-08T16:12:00.000Z,48.40
2018-09-08T16:14:29.125Z,48.40
2018-09-08T16:16:58.186Z,49.30
2018-09-08T16:19:27.341Z,49.70
2018-09-08T16:21:56.451Z,49.80
2018-09-08T16:24:25.469Z,50.40
2018-09-08T16:26:54.740Z,50.40
2018-09-08T16:29:24.043Z,50.80
2018-09-08T16:31:53.283Z,51.40
2018-09-08T16:34:22.270Z,51.10
2018-09-08T16:36:51.347Z,51.50
2018-09-08T16:39:20.433Z,51.90
2018-09-08T16:41:49.581Z,52.20
2018-09-08T16:44:18.842Z,52.70
2018-09-08T16:46:47.902Z,52.90
2018-09-08T16:49:17.054Z,53.30
2018-09-08T16:51:46.240Z,53.30
2018-09-08T16:54:15.238Z,53.40
2018-09-08T16:56:44.458Z,53.80
2018-09-08T16:59:13.752Z,53.30
2018-09-08T17:01:42.914Z,53.60
2018-09-08T17:04:12.162Z,53.70
2018-09-08T17:06:41.255Z,53.60
2018-09-08T17:09:10.454Z,54.60
2018-09-08T17:11:39.733Z,54.50
2018-09-08T17:14:08.829Z,54.80
2018-09-08T17:16:37.950Z,54.50
2018-09-08T17:19:06.957Z,55.00
2018-09-08T17:21:36.054Z,55.90
2018-09-08T17:24:05.176Z,55.60
2018-09-08T17:26:34.585Z,55.80
2018-09-08T17:29:03.741Z,56.00
2018-09-08T17:31:32.884Z,56.80
2018-09-08T17:34:02.109Z,56.80
2018-09-08T17:36:31.231Z,56.90
2018-09-08T17:39:00.645Z,57.00
2018-09-08T17:41:29.865Z,57.20
2018-09-08T17:43:58.989Z,57.70
2018-09-08T17:46:28.833Z,57.90
2018-09-08T17:48:58.111Z,58.70
2018-09-08T17:51:27.271Z,58.60
2018-09-08T17:53:56.417Z,59.10
2018-09-08T17:56:25.579Z,59.30
2018-09-08T17:58:55.015Z,59.60
2018-09-08T18:01:23.953Z,60.30
2018-09-08T18:03:53.713Z,61.00
2018-09-08T18:06:22.889Z,61.70
2018-09-08T18:08:52.018Z,61.00
2018-09-08T18:11:20.965Z,60.90
2018-09-08T18:13:50.234Z,61.30
2018-09-08T18:16:19.498Z,62.20
2018-09-08T18:18:48.598Z,62.40
2018-09-08T18:21:17.728Z,62.80
2018-09-08T18:23:46.777Z,63.30
2018-09-08T18:26:16.027Z,63.90
2018-09-08T18:28:45.082Z,64.80
2018-09-08T18:31:14.302Z,66.00
2018-09-08T18:33:43.410Z,67.00
2018-09-08T18:36:12.998Z,69.00
2018-09-08T18:38:42.253Z,70.50
2018-09-08T18:41:11.537Z,72.60
2018-09-08T18:43:40.749Z,74.00
2018-09-08T18:46:10.021Z,75.00
2018-09-08T18:48:39.330Z,76.60
2018-09-08T18:51:08.940Z,77.60
2018-09-08T18:53:38.090Z,78.90
2018-09-08T18:56:07.330Z,79.70
2018-09-08T18:58:36.336Z,80.50
2018-09-08T19:01:05.548Z,82.10
2018-09-08T19:03:34.717Z,82.40
2018-09-08T19:06:03.976Z,83.10
2018-09-08T19:08:38.165Z,83.40
2018-09-08T19:11:07.351Z,86.40
2018-09-08T19:13:36.434Z,86.60
2018-09-08T19:16:05.606Z,88.00
2018-09-08T19:18:34.895Z,88.00
2018-09-08T19:21:04.949Z,88.90
2018-09-08T19:23:34.073Z,89.10
2018-09-08T19:26:03.081Z,89.20
2018-09-08T19:28:32.170Z,90.00
2018-09-08T19:31:01.294Z,90.80
2018-09-08T19:33:31.655Z,91.10
2018-09-08T19:36:00.910Z,92.60
2018-09-08T19:38:29.967Z,91.90
2018-09-08T19:40:59.193Z,92.00
2018-09-08T19:43:28.294Z,92.30
2018-09-08T19:45:57.538Z,92.60
2018-09-08T19:48:26.766Z,93.00
2018-09-08T19:50:55.966Z,93.50
2018-09-08T19:53:30.090Z,94.00
2018-09-08T19:55:59.423Z,94.70
2018-09-08T19:58:33.761Z,95.50
2018-09-08T20:01:03.050Z,96.20
2018-09-08T20:03:32.266Z,97.20
2018-09-08T20:06:01.353Z,98.30
2018-09-08T20:08:30.529Z,98.90
2018-09-08T20:10:59.650Z,98.90
2018-09-08T20:13:29.482Z,98.60
2018-09-08T20:15:58.530Z,98.10
2018-09-08T20:18:27.735Z,97.90
2018-09-08T20:20:56.941Z,97.50
2018-09-08T20:23:25.991Z,98.10
2018-09-08T20:25:55.309Z,98.60
2018-09-08T20:28:24.635Z,98.40
2018-09-08T20:30:53.678Z,98.30
2018-09-08T20:33:22.890Z,98.60
2018-09-08T20:35:52.195Z,98.70
2018-09-08T20:38:21.317Z,98.40
2018-09-08T20:40:50.562Z,98.40
2018-09-08T20:43:20.697Z,98.60
2018-09-08T20:45:49.704Z,98.90
2018-09-08T20:48:18.917Z,98.80
2018-09-08T20:50:48.014Z,99.20
2018-09-08T20:53:17.226Z,99.70
2018-09-08T20:55:46.399Z,99.90
2018-09-08T20:58:15.389Z,99.90
2018-09-08T21:00:44.433Z,99.90
2018-09-08T21:03:13.786Z,99.90
2018-09-08T21:05:43.002Z,99.90
2018-09-08T21:08:12.195Z,99.90
2018-09-08T21:10:41.246Z,99.90
2018-09-08T21:13:10.415Z,99.90
2018-09-08T21:15:39.642Z,99.90
2018-09-08T21:18:08.824Z,99.90
2018-09-08T21:20:38.193Z,99.90
2018-09-08T21:23:07.373Z,99.90
2018-09-08T21:25:36.470Z,99.90
2018-09-08T21:28:05.777Z,99.90
2018-09-08T21:30:35.093Z,99.90
2018-09-08T21:33:04.177Z,99.90
2018-09-08T21:35:33.351Z,99.90
2018-09-08T21:38:02.501Z,99.90
2018-09-08T21:40:31.698Z,99.90
2018-09-08T21:43:00.754Z,99.90
2018-09-08T21:45:30.229Z,99.90
2018-09-08T21:47:59.280Z,99.90
2018-09-08T21:50:28.354Z,99.90
2018-09-08T21:52:57.518Z,99.90
2018-09-08T21:55:26.496Z,99.90
2018-09-08T21:57:55.500Z,99.90
2018-09-08T22:00:24.474Z,99.90
2018-09-08T22:02:54.258Z,99.90
2018-09-08T22:05:23.386Z,99.90
2018-09-08T22:07:52.590Z,99.90
2018-09-08T22:10:21.787Z,99.90
2018-09-08T22:12:50.750Z,99.90
2018-09-08T22:15:20.097Z,99.90
2018-09-08T22:17:49.288Z,99.90
2018-09-08T22:20:18.610Z,99.90
2018-09-08T22:22:48.606Z,99.90
2018-09-08T22:25:17.835Z,99.90
2018-09-08T22:27:47.054Z,99.90
2018-09-08T22:30:16.198Z,99.90
2018-09-08T22:32:45.571Z,99.90
2018-09-08T22:35:14.922Z,99.90
2018-09-08T22:37:44.278Z,99.90
2018-09-08T22:40:13.512Z,99.90
2018-09-08T22:42:42.634Z,99.90
2018-09-08T22:45:11.853Z,99.90
2018-09-08T22:47:41.157Z,99.90
2018-09-08T22:50:10.422Z,99.90
2018-09-08T22:52:39.625Z,99.90
2018-09-08T22:55:08.793Z,99.90
2018-09-08T22:57:38.539Z,99.90
2018-09-08T23:00:07.781Z,99.90
2018-09-08T23:02:36.917Z,99.90
2018-09-08T23:05:05.985Z,99.90
2018-09-08T23:07:35.161Z,99.90
2018-09-08T23:10:04.347Z,99.90
2018-09-08T23:12:33.520Z,99.90
2018-09-08T23:15:02.678Z,99.90
2018-09-08T23:17:31.897Z,99.90
2018-09-08T23:20:01.302Z,99.90
2018-09-08T23:22:30.518Z,99.90
2018-09-08T23:24:59.677Z,99.90
2018-09-08T23:27:28.765Z,99.90
2018-09-08T23:29:57.975Z,99.90
2018-09-08T23:32:27.317Z,99.90
2018-09-08T23:34:57.269Z,99.90
2018-09-08T23:37:26.324Z,99.90
2018-09-08T23:39:55.435Z,99.90
2018-09-08T23:42:24.513Z,99.90
2018-09-08T23:44:53.718Z,99.90
2018-09-08T23:47:22.913Z,99.90
2018-09-08T23:49:52.025Z,99.90
2018-09-08T23:52:21.262Z,99.90
2018-09-08T23:54:50.401Z,99.90
2018-09-08T23:57:19.517Z,99.90
2018-09-08T23:59:48.669Z,99.90
